createdAt,value
2022-07-28T00:00:05.930Z,15.12
2022-07-28T00:02:34.901Z,15.16
2022-07-28T00:05:01.296Z,15.14
2022-07-28T00:07:27.687Z,15.14
2022-07-28T00:09:59.818Z,15.15
2022-07-28T00:12:26.857Z,15.22
2022-07-28T00:14:53.232Z,15.26
2022-07-28T00:17:19.614Z,15.28
2022-07-28T00:19:45.999Z,15.22
2022-07-28T00:22:12.394Z,14.82
2022-07-28T00:24:38.767Z,14.93
2022-07-28T00:27:05.339Z,14.98
2022-07-28T00:29:49.094Z,14.92
2022-07-28T00:32:16.541Z,14.90
2022-07-28T00:34:43.269Z,14.84
2022-07-28T00:37:13.433Z,14.77
2022-07-28T00:39:41.303Z,14.64
2022-07-28T00:42:08.219Z,14.63
2022-07-28T00:44:34.608Z,14.74
2022-07-28T00:47:01.051Z,14.82
2022-07-28T00:49:27.483Z,14.85
2022-07-28T00:51:53.875Z,14.89
2022-07-28T00:54:20.258Z,14.82
2022-07-28T00:56:46.641Z,14.81
2022-07-28T00:59:13.017Z,14.80
2022-07-28T01:01:39.517Z,14.55
2022-07-28T01:04:05.991Z,14.41
2022-07-28T01:06:57.267Z,14.56
2022-07-28T01:09:44.382Z,14.71
2022-07-28T01:12:44.498Z,14.70
2022-07-28T01:15:24.335Z,14.59
2022-07-28T01:18:04.010Z,14.50
2022-07-28T01:20:57.601Z,14.54
2022-07-28T01:23:33.121Z,14.52
2022-07-28T01:26:24.009Z,14.40
2022-07-28T01:29:11.625Z,14.50
2022-07-28T01:31:39.849Z,14.51
2022-07-28T01:34:08.363Z,14.51
2022-07-28T01:36:52.006Z,14.46
2022-07-28T01:39:18.395Z,14.04
2022-07-28T01:41:44.761Z,14.18
2022-07-28T01:44:14.516Z,14.23
2022-07-28T01:46:41.811Z,14.25
2022-07-28T01:49:08.296Z,14.24
2022-07-28T01:51:34.726Z,14.18
2022-07-28T01:54:01.105Z,14.17
2022-07-28T01:56:29.347Z,14.20
2022-07-28T01:58:55.734Z,14.14
2022-07-28T02:01:23.036Z,14.14
2022-07-28T02:03:49.442Z,14.10
2022-07-28T02:06:15.809Z,14.15
2022-07-28T02:08:43.249Z,14.20
2022-07-28T02:11:09.985Z,14.15
2022-07-28T02:13:36.606Z,13.95
2022-07-28T02:16:04.490Z,14.05
2022-07-28T02:18:31.157Z,14.06
2022-07-28T02:20:58.314Z,14.05
2022-07-28T02:23:24.686Z,13.98
2022-07-28T02:25:51.067Z,13.86
2022-07-28T02:28:17.467Z,13.78
2022-07-28T02:31:06.198Z,13.80
2022-07-28T02:33:58.761Z,13.90
2022-07-28T02:36:27.350Z,14.02
2022-07-28T02:38:55.807Z,14.02
2022-07-28T02:41:28.907Z,13.96
2022-07-28T02:43:57.825Z,13.87
2022-07-28T02:46:27.117Z,13.89
2022-07-28T02:48:56.446Z,13.75
2022-07-28T02:51:23.782Z,13.76
2022-07-28T02:53:50.357Z,13.68
2022-07-28T02:56:17.295Z,13.69
2022-07-28T02:58:43.768Z,13.66
2022-07-28T03:01:10.233Z,13.60
2022-07-28T03:03:38.450Z,13.59
2022-07-28T03:06:07.723Z,13.69
2022-07-28T03:08:34.089Z,13.66
2022-07-28T03:11:13.596Z,13.78
2022-07-28T03:13:40.047Z,13.91
2022-07-28T03:16:06.801Z,13.90
2022-07-28T03:18:33.178Z,13.85
2022-07-28T03:20:59.576Z,13.74
2022-07-28T03:23:32.990Z,13.59
2022-07-28T03:26:02.141Z,13.65
2022-07-28T03:28:28.509Z,13.64
2022-07-28T03:31:00.306Z,13.76
2022-07-28T03:33:26.710Z,13.80
2022-07-28T03:35:53.452Z,13.86
2022-07-28T03:38:24.902Z,13.85
2022-07-28T03:40:51.288Z,13.81
2022-07-28T03:43:19.479Z,13.75
2022-07-28T03:45:46.829Z,13.82
2022-07-28T03:48:13.533Z,13.83
2022-07-28T03:50:39.916Z,13.87
2022-07-28T03:53:10.416Z,13.80
2022-07-28T03:55:36.800Z,13.81
2022-07-28T03:58:03.173Z,13.88
2022-07-28T04:00:29.555Z,13.85
2022-07-28T04:02:55.954Z,13.91
2022-07-28T04:05:22.393Z,14.01
2022-07-28T04:07:48.782Z,14.06
2022-07-28T04:10:15.968Z,14.18
2022-07-28T04:12:56.918Z,14.34
2022-07-28T04:15:24.114Z,14.23
2022-07-28T04:17:51.188Z,14.15
2022-07-28T04:20:17.939Z,13.91
2022-07-28T04:22:45.149Z,14.04
2022-07-28T04:25:11.742Z,14.08
2022-07-28T04:27:38.333Z,13.99
2022-07-28T04:30:23.960Z,14.07
2022-07-28T04:32:51.229Z,14.04
2022-07-28T04:35:17.902Z,14.00
2022-07-28T04:37:44.312Z,13.95
2022-07-28T04:40:11.229Z,13.94
2022-07-28T04:42:37.798Z,13.96
2022-07-28T04:45:05.607Z,13.92
2022-07-28T04:47:31.987Z,13.92
2022-07-28T04:49:58.359Z,13.90
2022-07-28T04:52:24.752Z,13.98
2022-07-28T04:54:51.127Z,14.02
2022-07-28T04:57:17.505Z,14.10
2022-07-28T04:59:43.883Z,14.09
2022-07-28T05:02:14.594Z,13.95
2022-07-28T05:04:41.343Z,13.90
2022-07-28T05:07:12.583Z,13.91
2022-07-28T05:09:39.185Z,13.97
2022-07-28T05:12:05.660Z,13.98
2022-07-28T05:14:32.132Z,13.98
2022-07-28T05:16:58.541Z,14.07
2022-07-28T05:19:25.010Z,13.98
2022-07-28T05:21:51.392Z,13.94
2022-07-28T05:24:17.926Z,13.94
2022-07-28T05:26:44.394Z,14.03
2022-07-28T05:29:10.770Z,14.09
2022-07-28T05:31:37.204Z,14.08
2022-07-28T05:34:03.621Z,14.02
2022-07-28T05:36:30.003Z,14.05
2022-07-28T05:38:56.369Z,14.24
2022-07-28T05:41:22.759Z,14.27
2022-07-28T05:43:49.133Z,14.21
2022-07-28T05:46:15.562Z,14.19
2022-07-28T05:48:42.005Z,14.34
2022-07-28T05:51:08.406Z,14.33
2022-07-28T05:53:34.785Z,14.39
2022-07-28T05:56:01.829Z,14.40
2022-07-28T05:58:29.062Z,14.33
2022-07-28T06:00:58.444Z,14.39
2022-07-28T06:03:24.867Z,14.33
2022-07-28T06:06:00.832Z,14.35
2022-07-28T06:08:40.534Z,14.25
2022-07-28T06:11:06.911Z,14.39
2022-07-28T06:13:33.302Z,14.45
2022-07-28T06:15:59.863Z,14.54
2022-07-28T06:18:26.313Z,14.50
2022-07-28T06:20:52.682Z,14.51
2022-07-28T06:23:19.471Z,14.57
2022-07-28T06:25:45.921Z,14.50
2022-07-28T06:28:12.303Z,14.61
2022-07-28T06:30:38.683Z,14.67
2022-07-28T06:33:05.079Z,14.72
2022-07-28T06:35:31.455Z,14.71
2022-07-28T06:38:12.298Z,14.67
2022-07-28T06:40:38.670Z,14.71
2022-07-28T06:43:05.060Z,14.76
2022-07-28T06:45:31.431Z,14.87
2022-07-28T06:47:57.828Z,14.87
2022-07-28T06:50:26.224Z,15.04
2022-07-28T06:52:54.389Z,15.14
2022-07-28T06:55:20.817Z,15.22
2022-07-28T06:57:47.225Z,15.32
2022-07-28T07:00:13.662Z,15.40
2022-07-28T07:02:40.747Z,15.52
2022-07-28T07:05:07.635Z,15.62
2022-07-28T07:07:34.082Z,15.63
2022-07-28T07:10:00.486Z,15.70
2022-07-28T07:12:26.876Z,15.64
2022-07-28T07:14:53.255Z,15.58
2022-07-28T07:17:19.638Z,15.51
2022-07-28T07:19:46.166Z,15.47
2022-07-28T07:22:13.960Z,15.49
2022-07-28T07:24:40.325Z,15.64
2022-07-28T07:27:06.724Z,15.58
2022-07-28T07:29:33.088Z,15.71
2022-07-28T07:31:59.517Z,15.72
2022-07-28T07:34:25.922Z,15.76
2022-07-28T07:36:52.338Z,15.87
2022-07-28T07:39:18.710Z,15.96
2022-07-28T07:41:45.288Z,15.81
2022-07-28T07:44:12.603Z,15.81
2022-07-28T07:46:39.202Z,15.92
2022-07-28T07:49:05.802Z,15.98
2022-07-28T07:51:32.335Z,16.06
2022-07-28T07:53:58.716Z,16.03
2022-07-28T07:56:25.099Z,16.13
2022-07-28T07:58:56.706Z,16.26
2022-07-28T08:01:23.542Z,16.25
2022-07-28T08:03:50.018Z,16.41
2022-07-28T08:06:16.686Z,16.64
2022-07-28T08:08:52.813Z,16.59
2022-07-28T08:11:19.209Z,16.51
2022-07-28T08:13:45.590Z,16.12
2022-07-28T08:16:12.038Z,16.37
2022-07-28T08:18:38.450Z,16.19
2022-07-28T08:21:04.834Z,16.12
2022-07-28T08:23:31.221Z,16.01
2022-07-28T08:25:57.597Z,15.88
2022-07-28T08:28:23.986Z,16.16
2022-07-28T08:30:50.548Z,16.34
2022-07-28T08:33:16.997Z,16.46
2022-07-28T08:35:43.377Z,16.64
2022-07-28T08:38:09.755Z,16.61
2022-07-28T08:40:36.326Z,16.65
2022-07-28T08:43:10.350Z,16.47
2022-07-28T08:45:37.229Z,16.56
2022-07-28T08:48:08.513Z,16.53
2022-07-28T08:50:35.662Z,16.79
2022-07-28T08:53:02.043Z,16.96
2022-07-28T08:55:31.513Z,17.06
2022-07-28T08:57:59.451Z,17.27
2022-07-28T09:00:25.821Z,17.14
2022-07-28T09:02:52.549Z,17.18
2022-07-28T09:05:22.389Z,17.16
2022-07-28T09:07:54.033Z,17.41
2022-07-28T09:10:21.142Z,17.52
2022-07-28T09:12:47.513Z,17.41
2022-07-28T09:15:13.905Z,17.28
2022-07-28T09:17:40.558Z,17.58
2022-07-28T09:20:11.049Z,17.52
2022-07-28T09:22:56.383Z,17.62
2022-07-28T09:25:22.907Z,17.67
2022-07-28T09:27:49.286Z,17.51
2022-07-28T09:30:15.675Z,17.48
2022-07-28T09:32:42.045Z,18.11
2022-07-28T09:35:18.321Z,18.09
2022-07-28T09:37:44.692Z,17.93
2022-07-28T09:40:11.530Z,17.81
2022-07-28T09:42:48.550Z,18.21
2022-07-28T09:45:24.099Z,18.56
2022-07-28T09:48:13.652Z,18.41
2022-07-28T09:50:40.991Z,18.75
2022-07-28T09:53:27.607Z,18.94
2022-07-28T09:56:01.552Z,18.68
2022-07-28T09:58:28.338Z,18.49
2022-07-28T10:01:11.611Z,18.33
2022-07-28T10:03:40.298Z,18.00
2022-07-28T10:06:06.755Z,17.93
2022-07-28T10:09:01.927Z,17.85
2022-07-28T10:11:28.917Z,18.62
2022-07-28T10:14:05.589Z,19.89
2022-07-28T10:16:44.231Z,20.35
2022-07-28T10:19:10.620Z,19.71
2022-07-28T10:21:42.230Z,19.09
2022-07-28T10:24:09.065Z,18.92
2022-07-28T10:26:42.323Z,18.97
2022-07-28T10:29:08.713Z,18.79
2022-07-28T10:31:43.578Z,18.71
2022-07-28T10:34:16.319Z,18.67
2022-07-28T10:36:42.932Z,18.51
2022-07-28T10:39:13.568Z,18.87
2022-07-28T10:41:41.068Z,18.86
2022-07-28T10:44:07.954Z,19.07
2022-07-28T10:46:35.440Z,19.89
2022-07-28T10:49:03.530Z,20.60
2022-07-28T10:51:30.746Z,20.62
2022-07-28T10:54:04.557Z,20.44
2022-07-28T10:56:33.852Z,19.86
2022-07-28T10:59:14.858Z,19.28
2022-07-28T11:01:50.021Z,18.85
2022-07-28T11:04:45.064Z,19.50
2022-07-28T11:07:12.159Z,19.59
2022-07-28T11:09:38.551Z,19.46
2022-07-28T11:12:05.240Z,18.82
2022-07-28T11:14:32.397Z,18.63
2022-07-28T11:17:01.496Z,18.67
2022-07-28T11:22:32.922Z,19.04
2022-07-28T11:24:59.339Z,19.21
2022-07-28T11:27:40.923Z,19.22
2022-07-28T11:30:13.819Z,19.46
2022-07-28T11:32:52.203Z,19.47
2022-07-28T11:35:19.278Z,19.12
2022-07-28T11:38:05.499Z,19.20
2022-07-28T11:40:42.795Z,18.90
2022-07-28T11:43:22.481Z,18.59
2022-07-28T11:46:00.987Z,18.79
2022-07-28T11:48:28.220Z,18.65
2022-07-28T11:51:03.794Z,18.82
2022-07-28T11:53:43.138Z,18.78
2022-07-28T11:56:10.648Z,18.54
2022-07-28T11:58:37.091Z,18.58
2022-07-28T12:01:20.095Z,18.42
2022-07-28T12:03:55.271Z,18.67
2022-07-28T12:06:28.748Z,18.83
2022-07-28T12:08:59.722Z,18.70
2022-07-28T12:11:27.950Z,19.00
2022-07-28T12:14:14.186Z,19.15
2022-07-28T12:16:42.438Z,18.97
2022-07-28T12:19:10.087Z,19.53
2022-07-28T12:21:46.575Z,20.53
2022-07-28T12:24:27.173Z,20.96
2022-07-28T12:26:53.777Z,20.40
2022-07-28T12:29:20.966Z,20.91
2022-07-28T12:32:03.562Z,21.23
2022-07-28T12:34:32.850Z,21.06
2022-07-28T12:37:00.363Z,20.30
2022-07-28T12:39:26.740Z,20.42
2022-07-28T12:42:03.519Z,20.82
2022-07-28T12:44:34.432Z,20.86
2022-07-28T12:47:00.933Z,20.84
2022-07-28T12:49:27.346Z,20.83
2022-07-28T12:51:53.777Z,21.57
2022-07-28T12:54:20.149Z,22.05
2022-07-28T12:56:50.870Z,22.04
2022-07-28T12:59:17.260Z,21.92
2022-07-28T13:01:56.627Z,21.21
2022-07-28T13:04:42.648Z,21.02
2022-07-28T13:07:13.728Z,21.39
2022-07-28T13:09:50.179Z,21.37
2022-07-28T13:12:26.748Z,21.32
2022-07-28T13:14:56.609Z,21.20
2022-07-28T13:17:24.276Z,21.26
2022-07-28T13:19:50.660Z,21.29
2022-07-28T13:22:26.893Z,21.28
2022-07-28T13:24:53.410Z,21.33
2022-07-28T13:27:19.794Z,21.31
2022-07-28T13:29:46.175Z,20.87
2022-07-28T13:32:12.632Z,20.18
2022-07-28T13:34:39.081Z,20.01
2022-07-28T13:37:05.466Z,19.64
2022-07-28T13:39:31.851Z,19.47
2022-07-28T13:41:59.224Z,19.44
2022-07-28T13:44:29.144Z,19.25
2022-07-28T13:46:56.594Z,19.18
2022-07-28T13:49:23.259Z,19.25
2022-07-28T13:51:51.001Z,19.46
2022-07-28T13:54:18.487Z,19.24
2022-07-28T13:56:45.274Z,19.59
2022-07-28T13:59:13.177Z,19.52
2022-07-28T14:01:39.802Z,19.95
2022-07-28T14:04:07.464Z,20.14
2022-07-28T14:06:34.194Z,20.41
2022-07-28T14:09:00.698Z,20.35
2022-07-28T14:11:30.827Z,20.69
2022-07-28T14:14:02.810Z,20.67
2022-07-28T14:16:30.457Z,20.42
2022-07-28T14:18:56.850Z,20.63
2022-07-28T14:21:23.226Z,20.72
2022-07-28T14:23:49.624Z,20.71
2022-07-28T14:26:35.091Z,20.85
2022-07-28T14:29:02.331Z,20.84
2022-07-28T14:31:28.870Z,20.61
2022-07-28T14:33:56.440Z,20.78
2022-07-28T14:36:22.838Z,20.73
2022-07-28T14:38:53.879Z,20.89
2022-07-28T14:41:20.508Z,20.95
2022-07-28T14:43:46.889Z,20.91
2022-07-28T14:46:20.617Z,20.91
2022-07-28T14:48:48.010Z,20.74
2022-07-28T14:51:14.455Z,20.92
2022-07-28T14:53:43.190Z,20.94
2022-07-28T14:56:14.651Z,20.58
2022-07-28T14:58:41.132Z,20.62
2022-07-28T15:01:07.878Z,20.67
2022-07-28T15:03:36.521Z,20.75
2022-07-28T15:06:03.294Z,20.58
2022-07-28T15:08:29.734Z,20.52
2022-07-28T15:10:56.134Z,20.50
2022-07-28T15:13:22.509Z,20.50
2022-07-28T15:15:49.029Z,20.39
2022-07-28T15:18:15.461Z,20.41
2022-07-28T15:20:41.878Z,20.49
2022-07-28T15:23:08.267Z,20.44
2022-07-28T15:25:35.045Z,20.42
2022-07-28T15:28:01.413Z,20.31
2022-07-28T15:30:27.794Z,20.18
2022-07-28T15:32:56.204Z,19.94
2022-07-28T15:35:25.080Z,19.95
2022-07-28T15:37:51.447Z,20.14
2022-07-28T15:40:17.832Z,20.27
2022-07-28T15:42:44.205Z,20.26
2022-07-28T15:45:10.939Z,20.26
2022-07-28T15:47:37.329Z,20.17
2022-07-28T15:50:04.063Z,20.14
2022-07-28T15:52:30.438Z,20.18
2022-07-28T15:54:56.843Z,20.16
2022-07-28T15:57:23.230Z,20.08
2022-07-28T15:59:50.664Z,20.06
2022-07-28T16:02:18.139Z,19.81
2022-07-28T16:04:52.142Z,19.94
2022-07-28T16:07:20.171Z,19.94
2022-07-28T16:09:52.859Z,20.00
2022-07-28T16:12:19.252Z,20.04
2022-07-28T16:14:45.622Z,20.27
2022-07-28T16:17:12.119Z,20.24
2022-07-28T16:19:49.016Z,20.22
2022-07-28T16:22:15.699Z,20.05
2022-07-28T16:24:42.078Z,20.13
2022-07-28T16:27:08.474Z,20.18
2022-07-28T16:29:34.847Z,20.04
2022-07-28T16:32:04.742Z,19.92
2022-07-28T16:34:31.101Z,19.91
2022-07-28T16:36:57.482Z,19.88
2022-07-28T16:39:23.851Z,19.79
2022-07-28T16:41:50.229Z,19.71
2022-07-28T16:44:16.966Z,19.66
2022-07-28T16:46:43.784Z,19.50
2022-07-28T16:49:10.246Z,19.45
2022-07-28T16:51:36.703Z,19.49
2022-07-28T16:54:03.121Z,19.36
2022-07-28T16:56:29.508Z,19.35
2022-07-28T16:58:55.878Z,19.29
2022-07-28T17:01:22.319Z,19.09
2022-07-28T17:03:48.830Z,18.83
2022-07-28T17:06:15.229Z,18.75
2022-07-28T17:08:41.607Z,18.81
2022-07-28T17:11:07.994Z,18.85
2022-07-28T17:13:34.371Z,18.83
2022-07-28T17:16:00.829Z,18.79
2022-07-28T17:18:27.247Z,18.70
2022-07-28T17:20:53.665Z,18.73
2022-07-28T17:23:20.038Z,18.72
2022-07-28T17:26:09.020Z,18.72
2022-07-28T17:28:32.835Z,18.64
2022-07-28T17:30:59.268Z,18.61
2022-07-28T17:33:26.207Z,18.63
2022-07-28T17:35:53.166Z,18.58
2022-07-28T17:38:19.555Z,18.53
2022-07-28T17:40:45.942Z,18.49
2022-07-28T17:43:12.346Z,18.43
2022-07-28T17:45:38.718Z,18.29
2022-07-28T17:48:05.163Z,18.22
2022-07-28T17:50:31.538Z,18.15
2022-07-28T17:52:57.928Z,18.03
2022-07-28T17:55:24.348Z,18.04
2022-07-28T17:57:50.955Z,18.09
2022-07-28T18:00:17.464Z,18.06
2022-07-28T18:02:44.731Z,18.00
2022-07-28T18:05:11.364Z,17.99
2022-07-28T18:07:50.353Z,17.90
2022-07-28T18:10:18.415Z,17.85
2022-07-28T18:12:51.273Z,17.71
2022-07-28T18:15:17.655Z,17.61
2022-07-28T18:17:54.920Z,17.48
2022-07-28T18:20:22.310Z,17.37
2022-07-28T18:22:48.699Z,17.35
2022-07-28T18:25:15.094Z,17.31
2022-07-28T18:27:42.477Z,17.25
2022-07-28T18:30:09.566Z,17.15
2022-07-28T18:32:35.956Z,17.08
2022-07-28T18:35:02.323Z,16.95
2022-07-28T18:37:30.859Z,16.84
2022-07-28T18:39:57.502Z,16.84
2022-07-28T18:42:23.975Z,16.77
2022-07-28T18:44:50.503Z,16.75
2022-07-28T18:47:16.889Z,16.55
2022-07-28T18:49:43.391Z,16.39
2022-07-28T18:52:09.854Z,16.34
2022-07-28T18:54:36.248Z,16.34
2022-07-28T18:57:02.628Z,16.26
2022-07-28T18:59:29.007Z,16.22
2022-07-28T19:01:55.445Z,16.13
2022-07-28T19:04:21.879Z,16.06
2022-07-28T19:06:48.258Z,16.17
2022-07-28T19:09:14.633Z,16.21
2022-07-28T19:11:45.763Z,16.23
2022-07-28T19:14:13.423Z,16.09
2022-07-28T19:16:40.085Z,16.13
2022-07-28T19:19:06.464Z,15.99
2022-07-28T19:21:33.673Z,15.91
2022-07-28T19:24:00.059Z,15.91
2022-07-28T19:26:26.491Z,15.82
2022-07-28T19:28:52.884Z,15.75
2022-07-28T19:31:19.391Z,15.80
2022-07-28T19:33:45.846Z,15.89
2022-07-28T19:36:12.365Z,15.64
2022-07-28T19:38:38.749Z,15.74
2022-07-28T19:41:05.112Z,15.73
2022-07-28T19:43:31.502Z,15.82
2022-07-28T19:45:57.913Z,15.88
2022-07-28T19:48:24.345Z,15.85
2022-07-28T19:50:51.147Z,15.75
2022-07-28T19:53:18.820Z,15.72
2022-07-28T19:55:50.811Z,15.70
2022-07-28T19:58:18.703Z,15.67
2022-07-28T20:00:45.470Z,15.62
2022-07-28T20:04:13.263Z,15.54
2022-07-28T20:06:00.137Z,15.50
2022-07-28T20:08:26.523Z,15.46
2022-07-28T20:10:52.912Z,15.42
2022-07-28T20:13:19.287Z,15.44
2022-07-28T20:15:45.781Z,15.46
2022-07-28T20:18:12.162Z,15.45
2022-07-28T20:20:38.544Z,15.35
2022-07-28T20:23:04.909Z,15.23
2022-07-28T20:25:31.355Z,15.11
2022-07-28T20:27:57.743Z,15.10
2022-07-28T20:30:24.177Z,15.03
2022-07-28T20:32:50.592Z,15.00
2022-07-28T20:35:16.997Z,14.97
2022-07-28T20:37:43.381Z,14.92
2022-07-28T20:40:10.068Z,14.92
2022-07-28T20:42:36.442Z,14.87
2022-07-28T20:45:02.907Z,14.81
2022-07-28T20:47:32.033Z,14.71
2022-07-28T20:49:58.435Z,14.71
2022-07-28T20:52:24.817Z,14.77
2022-07-28T20:54:54.579Z,14.62
2022-07-28T20:57:22.023Z,14.57
2022-07-28T20:59:48.448Z,14.61
2022-07-28T21:02:14.909Z,14.59
2022-07-28T21:04:41.360Z,14.55
2022-07-28T21:07:09.946Z,14.52
2022-07-28T21:09:36.333Z,14.47
2022-07-28T21:12:02.706Z,14.48
2022-07-28T21:14:29.081Z,14.43
2022-07-28T21:16:55.536Z,14.40
2022-07-28T21:19:21.925Z,14.35
2022-07-28T21:21:48.309Z,14.34
2022-07-28T21:24:14.969Z,14.27
2022-07-28T21:26:41.754Z,14.21
2022-07-28T21:29:08.457Z,14.17
2022-07-28T21:31:34.701Z,14.21
2022-07-28T21:34:20.921Z,14.11
2022-07-28T21:36:47.176Z,14.11
2022-07-28T21:39:13.811Z,14.14
2022-07-28T21:41:40.289Z,14.15
2022-07-28T21:44:06.533Z,14.13
2022-07-28T21:46:32.785Z,14.02
2022-07-28T21:48:59.342Z,14.04
2022-07-28T21:51:25.829Z,14.04
2022-07-28T21:53:52.219Z,14.08
2022-07-28T21:56:18.595Z,14.07
2022-07-28T21:58:44.840Z,14.01
2022-07-28T22:01:11.154Z,13.91
2022-07-28T22:03:37.526Z,13.86
2022-07-28T22:06:04.198Z,13.88
2022-07-28T22:08:30.954Z,13.85
2022-07-28T22:10:57.201Z,13.88
2022-07-28T22:13:23.445Z,13.85
2022-07-28T22:15:49.706Z,13.80
2022-07-28T22:18:16.969Z,13.86
2022-07-28T22:20:43.295Z,13.84
2022-07-28T22:23:18.661Z,13.69
2022-07-28T22:25:55.908Z,13.62
2022-07-28T22:28:30.125Z,13.49
2022-07-28T22:30:56.686Z,13.38
2022-07-28T22:33:22.916Z,13.23
2022-07-28T22:35:49.154Z,13.02
2022-07-28T22:38:15.394Z,13.14
2022-07-28T22:40:41.628Z,13.14
2022-07-28T22:43:07.900Z,13.27
2022-07-28T22:45:49.457Z,13.11
2022-07-28T22:48:17.709Z,12.93
2022-07-28T22:50:43.963Z,12.87
2022-07-28T22:53:10.210Z,13.00
2022-07-28T22:55:36.465Z,13.13
2022-07-28T22:58:05.680Z,13.00
2022-07-28T23:00:32.198Z,12.98
2022-07-28T23:03:00.068Z,13.06
2022-07-28T23:05:26.345Z,13.03
2022-07-28T23:07:57.030Z,12.92
2022-07-28T23:10:23.705Z,13.03
2022-07-28T23:12:49.950Z,13.05
2022-07-28T23:15:16.191Z,13.12
2022-07-28T23:17:42.442Z,13.18
2022-07-28T23:20:08.913Z,13.22
2022-07-28T23:22:35.166Z,13.11
2022-07-28T23:25:01.412Z,13.04
2022-07-28T23:27:27.666Z,12.98
2022-07-28T23:29:53.910Z,12.94
2022-07-28T23:32:20.156Z,12.93
2022-07-28T23:34:46.399Z,12.96
2022-07-28T23:37:12.655Z,12.96
2022-07-28T23:39:38.902Z,12.93
2022-07-28T23:42:05.148Z,12.91
2022-07-28T23:44:31.373Z,12.93
2022-07-28T23:46:57.716Z,12.97
2022-07-28T23:49:24.014Z,12.98
2022-07-28T23:51:50.303Z,12.96
2022-07-28T23:54:17.142Z,12.98
2022-07-28T23:56:43.689Z,12.97
2022-07-28T23:59:13.770Z,12.92
